Time;durP1;ratioP1;P1;durP2;ratioP2;P2;SDS_P1;SDS_P2;PMS_P1;PMS_P2;Temp;Humidity;BMP_temperature;BMP_pressure;BME280_temperature;BME280_humidity;BME280_pressure;Samples;Min_cycle;Max_cycle;Signal;HPM_P1;HPM_P2
2022/01/16 00:04:40;;;;;;;48.28;19.13;;;;;;;5.82;63.99;102326.81;4987519;28;124032;-70
2022/01/16 00:07:07;;;;;;;44.60;18.35;;;;;;;5.81;64.39;102329.44;4988050;28;114021;-70
2022/01/16 00:09:38;;;;;;;49.20;18.40;;;;;;;5.80;64.46;102322.41;4990815;28;114000;-69
2022/01/16 00:12:06;;;;;;;40.85;17.20;;;;;;;5.78;64.36;102324.19;4989757;28;124439;-70
2022/01/16 00:14:34;;;;;;;38.85;16.02;;;;;;;5.79;64.33;102328.56;4989012;28;123772;-70
2022/01/16 00:17:01;;;;;;;35.65;14.45;;;;;;;5.78;64.40;102324.19;4989186;28;115054;-70
2022/01/16 00:19:28;;;;;;;37.45;14.80;;;;;;;5.76;64.36;102336.47;4988689;28;114164;-70
2022/01/16 00:21:57;;;;;;;34.38;14.73;;;;;;;5.75;64.52;102319.81;4989816;28;123722;-70
2022/01/16 00:24:24;;;;;;;36.58;14.15;;;;;;;5.76;64.46;102320.69;4989734;28;124266;-70
2022/01/16 00:26:51;;;;;;;35.88;15.23;;;;;;;5.76;64.23;102315.44;4989754;28;114010;-70
2022/01/16 00:29:18;;;;;;;35.67;14.77;;;;;;;5.80;64.60;102314.53;4989089;28;113530;-70
2022/01/16 00:31:45;;;;;;;36.80;14.18;;;;;;;5.81;64.54;102308.41;4988761;28;124165;-69
2022/01/16 00:34:13;;;;;;;39.97;14.65;;;;;;;5.84;64.76;102308.41;4972641;28;123678;-70
2022/01/16 00:36:40;;;;;;;37.03;14.70;;;;;;;5.86;64.23;102322.44;4990046;28;116165;-70
2022/01/16 00:39:07;;;;;;;38.72;15.57;;;;;;;5.86;64.50;102338.22;4988679;28;113203;-69
2022/01/16 00:41:35;;;;;;;35.72;14.68;;;;;;;5.86;64.37;102343.47;4988655;28;124326;-70
2022/01/16 00:44:03;;;;;;;36.97;15.90;;;;;;;5.85;64.28;102331.19;4989733;28;123556;-70
2022/01/16 00:46:30;;;;;;;35.83;14.35;;;;;;;5.85;64.45;102325.94;4989665;28;114426;-70
2022/01/16 00:48:58;;;;;;;36.30;14.70;;;;;;;5.86;64.56;102327.69;4990030;28;114594;-70
2022/01/16 00:51:26;;;;;;;41.97;14.95;;;;;;;5.86;64.32;102322.44;4987957;28;124407;-69
2022/01/16 00:53:53;;;;;;;39.10;15.50;;;;;;;5.86;64.53;102335.59;4989470;28;123894;-70
2022/01/16 00:56:21;;;;;;;39.15;14.60;;;;;;;5.86;64.29;102317.19;4988506;28;114214;-69
2022/01/16 00:58:48;;;;;;;38.58;15.90;;;;;;;5.85;64.34;102299.63;4973965;28;113143;-69
2022/01/16 01:01:16;;;;;;;44.90;15.07;;;;;;;5.84;64.39;102290.03;4988952;28;123912;-69
2022/01/16 01:03:44;;;;;;;36.92;15.18;;;;;;;5.85;64.38;102283.88;4989758;28;124104;-70
2022/01/16 01:06:14;;;;;;;35.65;15.15;;;;;;;5.87;64.71;102300.50;4988993;28;114895;-69
2022/01/16 01:08:41;;;;;;;39.53;14.65;;;;;;;5.88;64.23;102289.13;4989651;28;114067;-70
2022/01/16 01:11:13;;;;;;;39.55;16.30;;;;;;;5.87;64.35;102303.13;4988955;28;123876;-69
2022/01/16 01:13:56;;;;;;;37.55;15.50;;;;;;;5.87;64.50;102290.00;4982414;28;124834;-69
2022/01/16 01:16:25;;;;;;;39.05;15.43;;;;;;;5.85;64.33;102297.88;4986293;28;114729;-69
2022/01/16 01:18:52;;;;;;;37.35;14.30;;;;;;;5.86;64.46;102293.50;4988039;28;113986;-70
2022/01/16 01:21:28;;;;;;;36.58;14.73;;;;;;;5.85;64.45;102300.50;4986085;28;123952;-70
2022/01/16 01:23:57;;;;;;;38.00;15.13;;;;;;;5.86;64.60;102280.38;4987310;28;123659;-69
2022/01/16 01:26:30;;;;;;;36.20;15.10;;;;;;;5.86;64.29;102280.38;4988985;28;114182;-70
2022/01/16 01:28:57;;;;;;;38.25;14.48;;;;;;;5.86;64.40;102290.88;4986026;28;113866;-71
2022/01/16 01:31:30;;;;;;;38.90;14.80;;;;;;;5.84;64.52;102297.91;4987920;28;124013;-70
2022/01/16 01:33:57;;;;;;;40.60;15.73;;;;;;;5.84;64.48;102290.03;4988279;28;123677;-70
2022/01/16 01:36:24;;;;;;;44.78;16.60;;;;;;;5.84;64.46;102276.88;4986061;28;113764;-70
2022/01/16 01:38:51;;;;;;;45.03;16.13;;;;;;;5.85;64.32;102236.53;4986142;28;113972;-70
2022/01/16 01:41:20;;;;;;;42.10;16.05;;;;;;;5.85;64.27;102220.75;4981829;28;123093;-70
2022/01/16 01:52:05;;;;;;;43.17;16.20;;;;;;;5.81;64.23;102237.44;5000453;28;123028;-70
2022/01/16 01:54:32;;;;;;;37.97;15.55;;;;;;;5.80;64.31;102254.06;4988868;28;123579;-71
2022/01/16 01:57:00;;;;;;;43.58;16.33;;;;;;;5.80;64.64;102238.28;4988696;28;115056;-71
2022/01/16 01:59:28;;;;;;;42.63;16.27;;;;;;;5.80;64.22;102264.59;4988999;28;115734;-71
2022/01/16 02:01:55;;;;;;;50.45;17.50;;;;;;;5.79;64.60;102270.75;4986677;28;123773;-70
2022/01/16 02:04:22;;;;;;;48.42;17.15;;;;;;;5.78;64.34;102266.34;4987973;28;123855;-71
2022/01/16 02:06:49;;;;;;;42.90;16.80;;;;;;;5.79;64.56;102273.38;4997187;28;114151;-70
2022/01/16 02:09:16;;;;;;;41.67;16.60;;;;;;;5.77;64.33;102290.91;4987278;28;113557;-70
2022/01/16 02:11:45;;;;;;;43.22;17.13;;;;;;;5.76;64.47;102284.75;4988092;28;124051;-70
2022/01/16 02:14:47;;;;;;;45.80;16.67;;;;;;;5.77;64.54;102290.91;4987146;28;124060;-70
2022/01/16 02:28:24;;;;;;;49.25;16.40;;;;;;;5.68;64.26;102297.03;4986444;28;114364;-70
2022/01/16 02:31:12;;;;;;;47.47;16.95;;;;;;;5.68;64.50;102296.16;4985047;28;114022;-70
2022/01/16 02:36:34;;;;;;;46.38;17.23;;;;;;;5.71;64.50;102311.91;4985181;28;123760;-69
2022/01/16 02:39:12;;;;;;;45.17;16.15;;;;;;;5.70;64.43;102310.19;4988081;28;114708;-70
2022/01/16 02:41:41;;;;;;;47.95;16.45;;;;;;;5.71;64.34;102309.28;4986175;28;113787;-70
2022/01/16 02:44:20;;;;;;;40.80;15.75;;;;;;;5.74;64.74;102306.66;4988141;28;123915;-70
2022/01/16 02:46:48;;;;;;;45.65;15.90;;;;;;;5.75;64.45;102303.19;4968794;28;122844;-70
2022/01/16 02:49:24;;;;;;;43.35;15.45;;;;;;;5.75;64.60;102297.91;4988269;28;115147;-70
2022/01/16 02:51:58;;;;;;;43.15;16.45;;;;;;;5.76;64.52;102289.13;4991713;28;115016;-70
2022/01/16 02:54:27;;;;;;;48.85;16.27;;;;;;;5.80;64.58;102290.88;4989774;28;124278;-70
2022/01/16 02:56:54;;;;;;;40.25;15.77;;;;;;;5.78;64.56;102287.38;4990981;28;123723;-70
2022/01/16 02:59:22;;;;;;;46.17;15.55;;;;;;;5.78;64.61;102271.59;4991699;28;114304;-70
2022/01/16 03:01:49;;;;;;;49.28;15.50;;;;;;;5.81;64.74;102266.34;4991198;28;113863;-70
2022/01/16 03:04:17;;;;;;;50.88;16.90;;;;;;;5.80;64.35;102269.84;4989213;28;123872;-69
2022/01/16 03:06:44;;;;;;;48.65;16.08;;;;;;;5.81;64.46;102261.09;4989728;28;124461;-70
2022/01/16 03:09:12;;;;;;;43.88;15.68;;;;;;;5.79;64.36;102257.59;4990368;28;114158;-70
2022/01/16 03:11:47;;;;;;;47.50;16.17;;;;;;;5.79;64.54;102252.34;4991130;28;114362;-70
2022/01/16 03:14:18;;;;;;;45.67;16.63;;;;;;;5.80;64.43;102254.97;4985860;28;124692;-70
2022/01/16 03:16:49;;;;;;;43.25;16.00;;;;;;;5.81;64.55;102250.56;4989170;28;123881;-69
2022/01/16 03:22:06;;;;;;;47.10;17.05;;;;;;;5.82;64.69;102260.19;4990057;28;113695;-70
2022/01/16 03:24:35;;;;;;;40.33;15.50;;;;;;;5.83;64.71;102264.59;4992962;28;124303;-70
2022/01/16 03:27:08;;;;;;;47.50;17.13;;;;;;;5.82;64.40;102241.78;4983607;28;123866;-70
2022/01/16 03:29:37;;;;;;;44.20;15.38;;;;;;;5.82;64.71;102236.53;4988365;28;114117;-70
2022/01/16 03:32:07;;;;;;;42.10;15.88;;;;;;;5.84;64.48;102240.06;4991435;28;114395;-70
2022/01/16 03:34:34;;;;;;;45.10;16.55;;;;;;;5.87;64.84;102234.78;4992359;28;124301;-70
2022/01/16 03:37:02;;;;;;;45.03;15.77;;;;;;;5.90;64.50;102223.41;4992346;28;123527;-70
2022/01/16 03:39:29;;;;;;;44.38;16.77;;;;;;;5.87;64.31;102224.25;4992149;28;115232;-70
2022/01/16 03:41:58;;;;;;;44.28;16.30;;;;;;;5.86;64.35;102214.63;4993871;28;113715;-70
2022/01/16 03:44:26;;;;;;;47.30;16.50;;;;;;;5.84;64.48;102224.28;4988833;28;125068;-70
2022/01/16 03:46:53;;;;;;;42.15;16.92;;;;;;;5.81;64.46;102216.41;4995767;28;122139;-69
2022/01/16 03:49:26;;;;;;;46.25;17.02;;;;;;;5.80;64.34;102227.78;5003980;28;113973;-70
2022/01/16 03:51:55;;;;;;;41.28;16.20;;;;;;;5.78;64.37;102229.53;5000782;28;111885;-70
2022/01/16 03:54:27;;;;;;;40.67;15.93;;;;;;;5.77;64.57;102230.44;4997259;28;121304;-70
2022/01/16 03:56:55;;;;;;;43.55;15.80;;;;;;;5.76;64.86;102233.94;4998437;28;123704;-70
2022/01/16 03:59:22;;;;;;;45.72;15.98;;;;;;;5.76;64.64;102226.91;4995572;28;113816;-70
2022/01/16 04:01:50;;;;;;;41.38;15.38;;;;;;;5.80;64.59;102227.78;4990560;28;114078;-70
2022/01/16 04:04:17;;;;;;;44.92;17.08;;;;;;;5.80;64.75;102233.03;4989376;28;123947;-70
2022/01/16 04:06:45;;;;;;;41.92;16.30;;;;;;;5.81;64.50;102237.44;4991760;28;122757;-69
2022/01/16 04:09:12;;;;;;;51.40;17.10;;;;;;;5.80;64.47;102238.28;4991638;28;114060;-70
2022/01/16 04:11:45;;;;;;;49.38;17.25;;;;;;;5.78;64.71;102229.53;4990600;28;112499;-70
2022/01/16 04:14:21;;;;;;;51.83;18.52;;;;;;;5.78;64.32;102234.78;4992082;28;123332;-70
2022/01/16 04:16:50;;;;;;;52.38;17.08;;;;;;;5.77;64.51;102219.91;4991582;28;123705;-70
2022/01/16 04:19:18;;;;;;;49.33;18.10;;;;;;;5.74;64.38;102220.78;4992970;28;114404;-70
2022/01/16 04:21:45;;;;;;;55.55;18.73;;;;;;;5.73;64.63;102226.06;4992762;28;113867;-69
2022/01/16 04:24:12;;;;;;;57.78;17.85;;;;;;;5.72;64.71;102224.31;4990140;28;123188;-69
2022/01/16 04:26:39;;;;;;;51.80;17.90;;;;;;;5.70;64.42;102210.31;4992340;28;123792;-69
2022/01/16 04:29:06;;;;;;;50.17;17.90;;;;;;;5.69;64.46;102208.53;4992333;28;115566;-69
2022/01/16 04:31:33;;;;;;;54.00;17.25;;;;;;;5.66;64.54;102218.19;4992373;28;115619;-69
2022/01/16 04:34:00;;;;;;;53.63;17.80;;;;;;;5.65;64.48;102219.06;4987853;28;124706;-69
2022/01/16 04:36:27;;;;;;;51.40;18.05;;;;;;;5.64;64.62;102219.94;4989780;28;125035;-69
2022/01/16 04:38:55;;;;;;;53.97;17.65;;;;;;;5.63;64.60;102215.59;4990345;28;114198;-69
2022/01/16 04:44:08;;;;;;;48.47;17.88;;;;;;;5.59;64.78;102213.81;4986599;28;123763;-69
2022/01/16 04:46:35;;;;;;;54.90;18.73;;;;;;;5.59;64.68;102219.06;4989409;28;123327;-69
2022/01/16 04:49:03;;;;;;;51.70;17.45;;;;;;;5.60;64.76;102220.84;4990041;28;114015;-69
2022/01/16 04:51:32;;;;;;;55.60;18.15;;;;;;;5.60;64.46;102220.84;4989794;28;113856;-69
2022/01/16 04:53:59;;;;;;;52.17;18.15;;;;;;;5.61;64.47;102222.59;4989277;28;124967;-69
2022/01/16 04:56:27;;;;;;;49.22;18.27;;;;;;;5.60;64.75;102218.19;4989391;28;124096;-70
2022/01/16 04:58:54;;;;;;;52.53;19.60;;;;;;;5.61;64.66;102214.72;4989059;28;113912;-69
2022/01/16 05:01:22;;;;;;;48.05;18.35;;;;;;;5.62;64.53;102213.81;4989873;28;114257;-69
2022/01/16 05:03:49;;;;;;;47.10;18.35;;;;;;;5.63;64.66;102210.31;4989289;28;124035;-69
2022/01/16 05:06:16;;;;;;;48.13;17.48;;;;;;;5.64;64.51;102214.69;4988992;28;123799;-69
2022/01/16 05:08:44;;;;;;;47.85;18.10;;;;;;;5.66;64.75;102209.44;4989510;28;114495;-69
2022/01/16 05:11:13;;;;;;;51.38;17.92;;;;;;;5.68;64.53;102196.28;4988689;28;114213;-71
2022/01/16 05:18:55;;;;;;;50.30;18.60;;;;;;;5.68;64.58;102196.28;4985452;28;115334;-69
2022/01/16 05:21:22;;;;;;;56.90;20.23;;;;;;;5.66;64.39;102199.78;4986362;28;114855;-69
2022/01/16 05:23:50;;;;;;;52.97;19.08;;;;;;;5.66;64.80;102194.53;4988829;28;123974;-69
2022/01/16 05:26:19;;;;;;;49.92;19.23;;;;;;;5.65;64.38;102187.53;4971306;28;123241;-69
2022/01/16 05:28:46;;;;;;;46.80;18.65;;;;;;;5.66;64.73;102184.00;4989180;28;114979;-70
2022/01/16 05:31:13;;;;;;;53.17;19.50;;;;;;;5.68;64.47;102180.53;4989279;28;113213;-70
2022/01/16 05:33:40;;;;;;;48.25;18.40;;;;;;;5.69;64.74;102187.50;4988883;28;124328;-70
2022/01/16 05:36:08;;;;;;;44.80;18.52;;;;;;;5.69;64.70;102192.75;4988829;28;124670;-70
2022/01/16 05:38:35;;;;;;;49.35;19.13;;;;;;;5.72;64.83;102198.03;4987658;28;114186;-69
2022/01/16 05:41:02;;;;;;;46.78;19.58;;;;;;;5.72;64.79;102188.38;4987605;28;114134;-70
2022/01/16 05:43:29;;;;;;;45.70;19.70;;;;;;;5.75;64.48;102192.78;4986539;28;124919;-70
2022/01/16 05:45:56;;;;;;;48.60;19.38;;;;;;;5.76;64.52;102183.97;4988269;28;125487;-70
2022/01/16 05:48:26;;;;;;;47.45;19.33;;;;;;;5.78;64.78;102195.38;4987904;28;114315;-70
2022/01/16 05:50:53;;;;;;;54.55;20.80;;;;;;;5.80;64.35;102193.59;4988783;28;114357;-69
2022/01/16 05:53:21;;;;;;;50.10;19.55;;;;;;;5.79;64.69;102205.03;4987142;28;123115;-70
2022/01/16 05:55:48;;;;;;;52.75;20.73;;;;;;;5.79;64.55;102199.75;4989216;28;123952;-70
2022/01/16 05:58:15;;;;;;;47.50;20.15;;;;;;;5.80;64.61;102201.50;4988352;28;113326;-69
2022/01/16 06:00:44;;;;;;;46.95;20.42;;;;;;;5.82;64.69;102199.72;4988201;28;114188;-70
2022/01/16 06:03:11;;;;;;;52.25;20.17;;;;;;;5.85;64.65;102194.47;4989103;28;123036;-69
2022/01/16 06:05:38;;;;;;;56.15;20.88;;;;;;;5.85;64.84;102194.47;4989399;28;123600;-70
2022/01/16 06:08:11;;;;;;;56.03;21.40;;;;;;;5.88;65.19;102191.84;4989036;28;114627;-69
2022/01/16 06:10:39;;;;;;;54.15;20.88;;;;;;;5.89;64.39;102183.06;4987534;28;115146;-70
2022/01/16 06:13:07;;;;;;;52.13;20.63;;;;;;;5.90;64.62;102197.09;4989089;28;124082;-70
2022/01/16 06:15:35;;;;;;;46.55;19.33;;;;;;;5.91;64.73;102189.19;4990092;28;124093;-71
2022/01/16 06:18:03;;;;;;;49.72;20.05;;;;;;;5.93;64.79;102187.41;4990777;28;114191;-69
2022/01/16 06:20:30;;;;;;;52.50;22.83;;;;;;;5.93;64.50;102176.91;4986168;28;114335;-68
2022/01/16 06:22:58;;;;;;;51.78;19.95;;;;;;;5.94;64.81;102194.44;4987646;28;124245;-68
2022/01/16 06:25:25;;;;;;;47.90;20.35;;;;;;;5.95;64.63;102190.97;4993678;28;123216;-68
2022/01/16 06:27:52;;;;;;;52.80;21.23;;;;;;;5.96;64.64;102203.22;4993756;28;114385;-69
2022/01/16 06:30:20;;;;;;;43.95;20.13;;;;;;;5.97;64.93;102205.00;4994351;28;114741;-69
2022/01/16 06:32:47;;;;;;;49.17;20.58;;;;;;;5.97;64.82;102199.72;4993379;28;123907;-69
2022/01/16 06:35:14;;;;;;;50.78;20.80;;;;;;;5.98;64.66;102206.72;4993561;28;124486;-69
2022/01/16 06:37:43;;;;;;;47.97;20.95;;;;;;;6.01;64.80;102206.72;4994967;28;113939;-69
2022/01/16 06:40:11;;;;;;;48.53;20.30;;;;;;;6.01;64.86;102211.97;4993724;28;113727;-69
2022/01/16 06:42:39;;;;;;;45.50;20.55;;;;;;;6.03;64.90;102220.75;4993746;28;123684;-69
2022/01/16 06:45:08;;;;;;;50.50;21.00;;;;;;;6.06;64.95;102218.97;4994146;28;124030;-69
2022/01/16 06:47:35;;;;;;;49.28;20.33;;;;;;;6.08;64.76;102211.94;4994327;28;113469;-69
2022/01/16 06:50:04;;;;;;;40.00;19.58;;;;;;;6.10;65.14;102215.44;4990988;28;114485;-71
2022/01/16 06:52:31;;;;;;;48.25;19.85;;;;;;;6.13;64.81;102218.06;4993238;28;124623;-70
2022/01/16 06:54:58;;;;;;;47.80;20.02;;;;;;;6.15;64.95;102218.94;4995593;28;123742;-69
2022/01/16 06:57:25;;;;;;;47.20;19.83;;;;;;;6.18;64.79;102229.47;4995561;28;115098;-69
2022/01/16 06:59:52;;;;;;;51.65;22.30;;;;;;;6.20;64.97;102232.94;4994326;28;114776;-69
2022/01/16 07:02:22;;;;;;;47.83;21.67;;;;;;;6.22;64.86;102233.81;4995904;28;123480;-70
2022/01/16 07:04:49;;;;;;;50.63;21.92;;;;;;;6.25;65.06;102236.41;4994747;28;123939;-69
2022/01/16 07:07:17;;;;;;;48.33;21.58;;;;;;;6.27;65.03;102234.66;4993687;28;113363;-69
2022/01/16 07:09:46;;;;;;;46.33;20.33;;;;;;;6.30;65.16;102239.91;4995373;28;113472;-70
2022/01/16 07:12:13;;;;;;;47.30;21.45;;;;;;;6.33;64.74;102239.91;4994742;28;123861;-70
2022/01/16 07:14:40;;;;;;;49.15;21.05;;;;;;;6.35;64.86;102237.28;4995878;28;125132;-69
2022/01/16 07:17:07;;;;;;;45.42;20.30;;;;;;;6.36;65.17;102239.00;4990748;28;114169;-70
2022/01/16 07:19:34;;;;;;;48.05;20.45;;;;;;;6.39;65.09;102255.66;4990408;28;112467;-70
2022/01/16 07:22:02;;;;;;;45.60;20.33;;;;;;;6.41;64.95;102267.03;4994070;28;124032;-70
2022/01/16 07:24:29;;;;;;;48.85;21.30;;;;;;;6.46;65.01;102266.13;4975670;28;122799;-70
2022/01/16 07:26:58;;;;;;;50.33;21.80;;;;;;;6.49;65.17;102266.13;4990518;28;114188;-69
2022/01/16 07:29:25;;;;;;;45.58;21.20;;;;;;;6.52;65.07;102272.25;4975647;28;113958;-70
2022/01/16 07:31:52;;;;;;;51.55;21.35;;;;;;;6.55;64.86;102277.50;4971888;28;123947;-70
2022/01/16 07:34:19;;;;;;;44.75;20.02;;;;;;;6.58;65.14;102281.88;4975254;28;124858;-69
2022/01/16 07:36:46;;;;;;;45.40;21.35;;;;;;;6.60;65.11;102274.84;4973381;28;112121;-69
2022/01/16 07:39:13;;;;;;;48.97;22.35;;;;;;;6.62;64.76;102284.47;4974941;28;114427;-70
2022/01/16 07:41:41;;;;;;;45.10;21.02;;;;;;;6.65;65.02;102288.88;4972360;28;124230;-70
2022/01/16 07:44:08;;;;;;;44.28;20.00;;;;;;;6.69;65.00;102284.47;4974413;28;124330;-70
2022/01/16 07:46:35;;;;;;;44.88;20.70;;;;;;;6.73;65.23;102281.78;4988143;28;114632;-69
2022/01/16 07:49:02;;;;;;;49.60;20.50;;;;;;;6.75;64.95;102285.28;4974497;28;114682;-70
2022/01/16 07:51:30;;;;;;;44.88;20.20;;;;;;;6.79;64.76;102292.28;4970826;28;124182;-70
2022/01/16 07:53:58;;;;;;;51.22;21.70;;;;;;;6.82;64.99;102294.91;4975041;28;123979;-70
2022/01/16 07:56:26;;;;;;;49.08;21.20;;;;;;;6.85;65.08;102296.63;4975152;28;114004;-69
2022/01/16 07:58:53;;;;;;;47.47;21.02;;;;;;;6.89;65.30;102318.56;4975922;28;113841;-69
2022/01/16 08:01:20;;;;;;;44.47;20.40;;;;;;;6.92;64.84;102318.56;4973967;28;123898;-70
2022/01/16 08:03:47;;;;;;;45.67;19.10;;;;;;;6.94;65.19;102315.03;4975523;28;123964;-70
2022/01/16 08:06:16;;;;;;;42.40;18.95;;;;;;;6.98;64.88;102313.25;4975258;28;114359;-70
2022/01/16 08:08:43;;;;;;;45.22;20.02;;;;;;;7.00;64.85;102322.88;4974005;28;112972;-70
2022/01/16 08:11:10;;;;;;;45.72;20.17;;;;;;;7.02;65.12;102312.34;4982498;28;123704;-71
2022/01/16 08:13:37;;;;;;;45.45;19.45;;;;;;;7.04;65.03;102307.94;4993411;28;123720;-70
2022/01/16 08:16:06;;;;;;;42.95;19.05;;;;;;;7.07;64.93;102302.66;4993084;28;113904;-70
2022/01/16 08:18:34;;;;;;;42.20;18.70;;;;;;;7.11;64.89;102309.63;4993531;28;114440;-70
2022/01/16 08:21:01;;;;;;;41.67;19.00;;;;;;;7.15;65.15;102303.47;4990705;28;123053;-70
2022/01/16 08:23:29;;;;;;;39.50;18.25;;;;;;;7.18;65.31;102300.81;4990302;28;123100;-70
2022/01/16 08:25:56;;;;;;;38.72;18.77;;;;;;;7.20;65.08;102293.75;4992262;28;114294;-70
2022/01/16 08:28:23;;;;;;;44.25;18.48;;;;;;;7.23;64.99;102287.59;4992931;28;113549;-72
2022/01/16 08:30:51;;;;;;;41.50;18.48;;;;;;;7.27;64.87;102293.72;4991101;28;124707;-70
2022/01/16 08:33:18;;;;;;;38.53;19.27;;;;;;;7.29;65.01;102295.47;4989151;28;124294;-70
2022/01/16 08:35:45;;;;;;;42.97;19.00;;;;;;;7.33;65.03;102293.69;4992114;28;115007;-70
2022/01/16 08:38:12;;;;;;;39.80;18.33;;;;;;;7.35;65.08;102307.72;4989454;28;114163;-70
2022/01/16 08:40:39;;;;;;;44.30;18.30;;;;;;;7.39;64.72;102309.44;4990480;28;123922;-70
2022/01/16 08:43:09;;;;;;;40.33;17.75;;;;;;;7.41;64.81;102312.94;4991415;28;124297;-70
2022/01/16 08:45:38;;;;;;;42.78;17.80;;;;;;;7.43;65.11;102300.63;4992202;28;114540;-70
2022/01/16 08:48:07;;;;;;;35.83;17.23;;;;;;;7.46;64.76;102305.88;4992093;28;114298;-70
2022/01/16 08:50:35;;;;;;;40.80;18.33;;;;;;;7.48;64.79;102309.38;4991687;28;123805;-71
2022/01/16 08:53:03;;;;;;;42.08;18.75;;;;;;;7.51;64.84;102314.59;4990164;28;124414;-70
2022/01/16 08:55:32;;;;;;;42.40;17.92;;;;;;;7.52;64.63;102316.34;4989389;28;113345;-70
2022/01/16 08:58:00;;;;;;;40.78;17.23;;;;;;;7.55;64.59;102315.44;4991318;28;113389;-70
2022/01/16 09:00:27;;;;;;;41.08;17.80;;;;;;;7.57;64.92;102322.47;4988923;28;123894;-70
2022/01/16 09:02:54;;;;;;;37.75;17.85;;;;;;;7.60;64.88;102329.47;4990606;28;124074;-70
2022/01/16 09:05:22;;;;;;;44.25;18.45;;;;;;;7.63;64.67;102333.84;4989599;28;114371;-71
2022/01/16 09:07:49;;;;;;;36.65;17.08;;;;;;;7.66;64.79;102323.28;4991072;28;113194;-71
2022/01/16 09:10:16;;;;;;;40.53;17.50;;;;;;;7.69;64.59;102333.81;4990134;28;123771;-70
2022/01/16 09:12:43;;;;;;;38.70;17.83;;;;;;;7.72;64.63;102323.19;4990307;28;124358;-70
2022/01/16 09:15:11;;;;;;;36.80;17.23;;;;;;;7.75;64.65;102328.47;4990262;28;113555;-70
2022/01/16 09:17:40;;;;;;;41.20;18.48;;;;;;;7.78;64.74;102333.72;4985315;28;113563;-71
2022/01/16 09:20:09;;;;;;;42.33;18.27;;;;;;;7.81;64.64;102338.94;4990354;28;123109;-68
2022/01/16 09:22:39;;;;;;;40.95;17.90;;;;;;;7.85;64.64;102345.06;4989367;28;125092;-69
2022/01/16 09:25:07;;;;;;;39.33;17.98;;;;;;;7.88;64.68;102351.19;4992673;28;114754;-69
2022/01/16 09:27:34;;;;;;;35.00;17.45;;;;;;;7.91;64.84;102340.63;4989586;28;116178;-69
2022/01/16 09:30:04;;;;;;;38.20;17.23;;;;;;;7.94;64.56;102351.13;4988083;28;123053;-70
2022/01/16 09:32:33;;;;;;;41.90;17.77;;;;;;;7.97;64.61;102345.81;4989039;28;124160;-69
2022/01/16 09:35:01;;;;;;;43.42;18.15;;;;;;;7.99;64.85;102357.25;4988023;28;114324;-70
2022/01/16 09:37:28;;;;;;;38.58;17.33;;;;;;;8.02;64.66;102361.59;4987557;28;113655;-70
2022/01/16 09:39:58;;;;;;;41.05;17.45;;;;;;;8.05;64.66;102364.22;4990535;28;125772;-69
2022/01/16 09:42:26;;;;;;;44.90;18.48;;;;;;;8.07;64.83;102356.28;4990904;28;126791;-69
2022/01/16 09:44:54;;;;;;;40.70;17.75;;;;;;;8.12;64.87;102365.03;4990785;28;113411;-69
2022/01/16 09:47:21;;;;;;;39.20;17.20;;;;;;;8.13;64.37;102372.06;4990191;28;113758;-69
2022/01/16 09:49:49;;;;;;;39.67;17.33;;;;;;;8.15;64.91;102365.00;5003600;28;123865;-69
2022/01/16 09:52:17;;;;;;;41.35;17.73;;;;;;;8.17;64.42;102368.50;4990129;28;125217;-69
2022/01/16 09:54:45;;;;;;;39.75;17.10;;;;;;;8.19;64.52;102377.25;4988542;28;114129;-69
2022/01/16 09:57:13;;;;;;;41.47;17.75;;;;;;;8.21;64.46;102375.47;4990430;28;113966;-69
2022/01/16 09:59:43;;;;;;;45.80;18.17;;;;;;;8.23;64.59;102379.00;4990813;28;125333;-69
2022/01/16 10:02:11;;;;;;;39.63;16.95;;;;;;;8.26;64.70;102381.59;4989460;28;124660;-69
2022/01/16 10:04:41;;;;;;;38.55;17.10;;;;;;;8.27;64.37;102386.00;4993374;28;114132;-71
2022/01/16 10:07:11;;;;;;;47.15;18.25;;;;;;;8.29;64.69;102389.50;4991023;28;113249;-70
2022/01/16 10:09:41;;;;;;;40.10;17.83;;;;;;;8.31;64.63;102387.69;4992425;28;124743;-71
2022/01/16 10:12:17;;;;;;;43.55;18.73;;;;;;;8.34;64.18;102386.78;4992973;28;124284;-70
2022/01/16 10:14:49;;;;;;;45.50;19.52;;;;;;;8.36;64.74;102396.47;4991888;28;114928;-70
2022/01/16 10:17:20;;;;;;;44.63;18.35;;;;;;;8.38;64.69;102394.69;4992574;28;115244;-70
2022/01/16 10:20:00;;;;;;;45.53;18.88;;;;;;;8.41;64.64;102408.72;4989968;28;123989;-71
2022/01/16 10:22:45;;;;;;;48.45;19.75;;;;;;;8.42;64.66;102407.84;4988422;28;125411;-71
2022/01/16 10:25:15;;;;;;;46.05;19.95;;;;;;;8.46;64.35;102406.94;4990062;28;114308;-69
2022/01/16 10:27:44;;;;;;;48.95;20.33;;;;;;;8.48;64.59;102415.72;4991902;28;113816;-71
2022/01/16 10:30:14;;;;;;;50.03;21.17;;;;;;;8.52;64.42;102412.16;4990872;28;123873;-70
2022/01/16 10:32:44;;;;;;;49.90;20.77;;;;;;;8.53;64.33;102419.16;4991448;28;123760;-69
2022/01/16 10:35:23;;;;;;;55.80;22.10;;;;;;;8.53;64.42;102412.16;4988715;28;114399;-70
2022/01/16 10:37:56;;;;;;;55.38;22.00;;;;;;;8.55;64.70;102420.94;4988899;28;114250;-70
2022/01/16 10:40:31;;;;;;;54.83;22.02;;;;;;;8.57;64.50;102420.91;4988502;28;124363;-70
2022/01/16 10:43:03;;;;;;;;;;;;;;;8.57;64.46;102426.19;4990854;28;123214;-70
2022/01/16 10:45:33;;;;;;;55.40;21.48;;;;;;;8.61;64.44;102430.53;4991298;28;114961;-70
2022/01/16 10:48:02;;;;;;;58.10;22.20;;;;;;;8.63;64.24;102423.47;4992155;28;114972;-71
2022/01/16 10:50:43;;;;;;;52.65;21.27;;;;;;;8.63;64.40;102415.56;4991485;28;124915;-70
2022/01/16 10:53:15;;;;;;;53.83;22.48;;;;;;;8.66;64.54;102419.91;4987985;28;124210;-71
2022/01/16 10:55:51;;;;;;;62.85;22.45;;;;;;;8.70;64.41;102427.81;4990877;28;114334;-70
2022/01/16 10:58:50;;;;;;;55.38;21.75;;;;;;;8.71;64.50;102429.53;4987072;28;114667;-71
2022/01/16 11:01:19;;;;;;;56.17;21.35;;;;;;;8.74;64.29;102423.34;4990711;28;124342;-71
2022/01/16 11:03:49;;;;;;;56.78;21.98;;;;;;;8.75;64.37;102415.38;4990511;28;123735;-71
2022/01/16 11:06:24;;;;;;;59.05;22.38;;;;;;;8.80;64.62;102425.03;4989876;28;115121;-71
2022/01/16 11:08:56;;;;;;;59.15;21.63;;;;;;;8.83;64.85;102428.50;4989806;28;114379;-71
2022/01/16 11:11:27;;;;;;;57.33;22.45;;;;;;;8.88;64.66;102420.53;4988979;28;123783;-70
2022/01/16 11:13:56;;;;;;;56.40;20.42;;;;;;;8.92;64.86;102427.53;4988075;28;124610;-71
2022/01/16 11:16:24;;;;;;;64.78;22.90;;;;;;;8.95;64.41;102430.16;4990367;28;114882;-71
2022/01/16 11:18:51;;;;;;;58.72;21.23;;;;;;;8.99;64.68;102433.63;4989833;28;113743;-71
2022/01/16 11:21:43;;;;;;;54.30;20.58;;;;;;;9.00;64.32;102441.50;4989590;28;123059;-70
2022/01/16 11:27:15;;;;;;;53.50;19.23;;;;;;;8.99;64.43;102437.13;4949374;28;114870;-71
2022/01/16 11:29:43;;;;;;;56.65;20.15;;;;;;;9.01;64.50;102437.97;4949581;28;114891;-71
2022/01/16 11:32:10;;;;;;;59.85;20.38;;;;;;;9.02;64.16;102433.56;4968846;28;124683;-71
2022/01/16 11:34:38;;;;;;;58.65;19.63;;;;;;;9.03;64.15;102436.19;4989398;28;124377;-71
2022/01/16 11:37:05;;;;;;;51.90;19.33;;;;;;;9.02;63.94;102434.44;4991410;28;114714;-71
2022/01/16 11:39:35;;;;;;;54.75;19.30;;;;;;;9.01;64.16;102443.28;4983524;28;114473;-71
2022/01/16 11:42:04;;;;;;;54.15;20.10;;;;;;;9.02;64.22;102434.44;4993259;28;124387;-71
2022/01/16 11:44:34;;;;;;;55.20;20.52;;;;;;;9.03;64.09;102435.31;4991018;28;123929;-70
2022/01/16 11:47:06;;;;;;;56.53;20.50;;;;;;;9.05;64.12;102434.41;4989111;28;112367;-70
2022/01/16 11:49:36;;;;;;;62.10;21.15;;;;;;;9.07;64.00;102432.59;4987547;28;114363;-70
2022/01/16 11:52:09;;;;;;;57.45;20.42;;;;;;;9.09;64.16;102430.81;4990338;28;125342;-71
2022/01/16 11:54:39;;;;;;;54.85;19.80;;;;;;;9.10;64.24;102427.28;4989408;28;123755;-71
2022/01/16 11:57:21;;;;;;;53.58;19.80;;;;;;;9.13;64.15;102427.22;4991936;28;114326;-70